Observation data for White River Lake on 04/23/2019      Previous  Date  Next       Current Mesonet Observations  Soil Data  Daily Summary Page  Observations in Plain Language
KWVS 230500Z 35012KT 15/13 A3002 RMK A01 T01450129  RH  094%=      5-min Rain = 0.01
KWVS 230505Z 35011KT 14/13 A3002 RMK A01 T01440129  RH  094%=      5-min Rain = 0
KWVS 230510Z 00012KT 14/13 A3003 RMK A01 T01440128  RH  094%=      5-min Rain = 0.03
KWVS 230515Z 00011KT 14/13 A3003 RMK A01 T01430129  RH  095%=      5-min Rain = 0.02
KWVS 230520Z 00013G18KT 14/13 A3002 RMK A01 T01420129  RH  095%=      5-min Rain = 0.01
KWVS 230525Z 01015KT 14/13 A3001 RMK A01 T01410128  RH  095%=      5-min Rain = 0.01
KWVS 230530Z 01013G19KT 14/13 A3002 RMK A01 T01410127  RH  095%=      5-min Rain = 0
KWVS 230535Z 02013KT 14/13 A3001 RMK A01 T01400126  RH  095%=      5-min Rain = 0
KWVS 230540Z 01013KT 14/13 A3001 RMK A01 T01390126  RH  095%=      5-min Rain = 0
KWVS 230545Z 01015KT 14/13 A3002 RMK A01 T01390125  RH  095%=      5-min Rain = 0
KWVS 230550Z 00014KT 14/12 A3002 RMK A01 T01390124  RH  094%=      5-min Rain = 0
KWVS 230555Z 01013KT 14/12 A3002 RMK A01 T01380124  RH  094%=      5-min Rain = 0
KWVS 230600Z 36013G18KT 14/12 A3002 RMK A01 T01380123  RH  094%=      5-min Rain = 0
KWVS 230605Z 36014KT 14/12 A3002 RMK A01 T01380122  RH  094%=      5-min Rain = 0
KWVS 230610Z 36013KT 14/12 A3002 RMK A01 T01370122  RH  094%=      5-min Rain = 0
KWVS 230615Z 00013KT 14/12 A3001 RMK A01 T01370122  RH  094%=      5-min Rain = 0
KWVS 230620Z 01013G18KT 14/12 A3001 RMK A01 T01370121  RH  094%=      5-min Rain = 0
KWVS 230625Z 00012KT 14/12 A3001 RMK A01 T01370121  RH  094%=      5-min Rain = 0.01
KWVS 230630Z 36013KT 14/12 A3001 RMK A01 T01370121  RH  094%=      5-min Rain = 0
KWVS 230635Z 00013KT 14/12 A3001 RMK A01 T01370121  RH  093%=      5-min Rain = 0
KWVS 230640Z 00014KT 14/12 A3001 RMK A01 T01380121  RH  093%=      5-min Rain = 0
KWVS 230645Z 01013KT 14/12 A30 RMK A01 T01380121  RH  093%=      5-min Rain = 0
KWVS 230650Z 01015KT 14/12 A30 RMK A01 T01370120  RH  093%=      5-min Rain = 0
KWVS 230655Z 01015KT 14/12 A2999 RMK A01 T01370120  RH  093%=      5-min Rain = 0
KWVS 230700Z 01014KT 14/12 A2999 RMK A01 T01370120  RH  093%=      5-min Rain = 0
KWVS 230705Z 01013KT 14/12 A2999 RMK A01 T01370120  RH  093%=      5-min Rain = 0
KWVS 230710Z 01013KT 14/12 A2999 RMK A01 T01370120  RH  093%=      5-min Rain = 0
KWVS 230715Z 01014KT 14/12 A2999 RMK A01 T01370120  RH  093%=      5-min Rain = 0
KWVS 230720Z 36015KT 14/12 A2999 RMK A01 T01370120  RH  093%=      5-min Rain = 0
KWVS 230725Z 36013KT 14/12 A2999 RMK A01 T01360120  RH  093%=      5-min Rain = 0
KWVS 230730Z 36013KT 14/12 A2999 RMK A01 T01360120  RH  093%=      5-min Rain = 0
KWVS 230735Z 36015KT 14/12 A2999 RMK A01 T01360119  RH  092%=      5-min Rain = 0
KWVS 230740Z 36014G19KT 14/12 A2999 RMK A01 T01360119  RH  092%=      5-min Rain = 0
KWVS 230745Z 36014KT 14/12 A2999 RMK A01 T01360118  RH  092%=      5-min Rain = 0
KWVS 230750Z 00014KT 14/12 A2999 RMK A01 T01360118  RH  092%=      5-min Rain = 0
KWVS 230755Z 00013KT 14/12 A2999 RMK A01 T01360118  RH  092%=      5-min Rain = 0
KWVS 230800Z 00013KT 14/12 A2999 RMK A01 T01360118  RH  092%=      5-min Rain = 0
KWVS 230805Z 36014KT 14/12 A2999 RMK A01 T01360117  RH  092%=      5-min Rain = 0
KWVS 230810Z 00014KT 14/12 A2999 RMK A01 T01360117  RH  092%=      5-min Rain = 0
KWVS 230815Z 00013G18KT 14/12 A2999 RMK A01 T01360117  RH  092%=      5-min Rain = 0
KWVS 230820Z 00012KT 14/12 A2999 RMK A01 T01350117  RH  092%=      5-min Rain = 0
KWVS 230825Z 01011KT 14/12 A2999 RMK A01 T01360118  RH  092%=      5-min Rain = 0
KWVS 230830Z 01011KT 14/12 A2999 RMK A01 T01360118  RH  092%=      5-min Rain = 0
KWVS 230835Z 01012KT 14/12 A2999 RMK A01 T01360118  RH  092%=      5-min Rain = 0
KWVS 230840Z 01013KT 14/12 A2998 RMK A01 T01360118  RH  092%=      5-min Rain = 0
KWVS 230845Z 01014G19KT 14/12 A2998 RMK A01 T01360118  RH  092%=      5-min Rain = 0
KWVS 230850Z 02012KT 14/12 A2998 RMK A01 T01360119  RH  093%=      5-min Rain = 0
KWVS 230855Z 02012KT 14/12 A2998 RMK A01 T01360119  RH  093%=      5-min Rain = 0
KWVS 230900Z 02011KT 14/12 A2998 RMK A01 T01350119  RH  094%=      5-min Rain = 0
KWVS 230905Z 02011KT 14/12 A2997 RMK A01 T01350120  RH  094%=      5-min Rain = 0
KWVS 230910Z 02011KT 14/12 A2998 RMK A01 T01350120  RH  094%=      5-min Rain = 0
KWVS 230915Z 02011KT 14/12 A2998 RMK A01 T01350120  RH  094%=      5-min Rain = 0
KWVS 230920Z 02010KT 14/12 A2997 RMK A01 T01350120  RH  094%=      5-min Rain = 0
KWVS 230925Z 01011KT 14/12 A2997 RMK A01 T01350120  RH  094%=      5-min Rain = 0
KWVS 230930Z 01009KT 14/12 A2998 RMK A01 T01350120  RH  094%=      5-min Rain = 0
KWVS 230935Z 01011KT 14/12 A2998 RMK A01 T01350120  RH  095%=      5-min Rain = 0
KWVS 230940Z 02011KT 14/12 A2997 RMK A01 T01350121  RH  095%=      5-min Rain = 0
KWVS 230945Z 02010KT 14/12 A2997 RMK A01 T01350121  RH  095%=      5-min Rain = 0
KWVS 230950Z 02011KT 14/12 A2997 RMK A01 T01350121  RH  095%=      5-min Rain = 0
KWVS 230955Z 02010KT 14/12 A2998 RMK A01 T01350122  RH  095%=      5-min Rain = 0
KWVS 231000Z 01011KT 14/12 A2998 RMK A01 T01350122  RH  095%=      5-min Rain = 0
KWVS 231005Z 34010G15KT 14/12 A2999 RMK A01 T01350122  RH  096%=      5-min Rain = 0.02
KWVS 231010Z 30015KT 14/12 A3002 RMK A01 T01350123  RH  096%=      5-min Rain = 0.26
KWVS 231015Z 33017KT 13/12 A3002 RMK A01 T01330122  RH  096%=      5-min Rain = 0.24
KWVS 231020Z 35010G17KT 14/12 A30 RMK A01 T01380117  RH  091%=      5-min Rain = 0.07
KWVS 231025Z 34009G16KT 14/12 A30 RMK A01 T01360120  RH  093%=      5-min Rain = 0.04
KWVS 231030Z 35012KT 13/12 A30 RMK A01 T01340120  RH  094%=      5-min Rain = 0
KWVS 231035Z 34012KT 13/12 A30 RMK A01 T01330120  RH  095%=      5-min Rain = 0
KWVS 231040Z 34012KT 13/12 A2999 RMK A01 T01330120  RH  096%=      5-min Rain = 0
KWVS 231045Z 34010KT 13/12 A30 RMK A01 T01330120  RH  096%=      5-min Rain = 0
KWVS 231050Z 35011KT 13/12 A2999 RMK A01 T01330120  RH  095%=      5-min Rain = 0
KWVS 231055Z 35011KT 13/12 A2999 RMK A01 T01320119  RH  095%=      5-min Rain = 0
KWVS 231100Z 36010KT 13/12 A2999 RMK A01 T01310118  RH  095%=      5-min Rain = 0
KWVS 231105Z 36010KT 13/12 A30 RMK A01 T01310119  RH  096%=      5-min Rain = 0
KWVS 231110Z 36009KT 13/12 A30 RMK A01 T01320120  RH  096%=      5-min Rain = 0
KWVS 231115Z 36010KT 13/12 A30 RMK A01 T01320119  RH  095%=      5-min Rain = 0
KWVS 231120Z 36009KT 13/12 A30 RMK A01 T01320119  RH  095%=      5-min Rain = 0
KWVS 231125Z 00010KT 13/12 A3001 RMK A01 T01320119  RH  095%=      5-min Rain = 0
KWVS 231130Z 01010KT 13/12 A3001 RMK A01 T01320118  RH  095%=      5-min Rain = 0
KWVS 231135Z 00010KT 13/12 A3001 RMK A01 T01320117  RH  094%=      5-min Rain = 0
KWVS 231140Z 01009KT 13/12 A3001 RMK A01 T01310117  RH  094%=      5-min Rain = 0
KWVS 231145Z 01009KT 13/12 A30 RMK A01 T01310116  RH  094%=      5-min Rain = 0
KWVS 231150Z 01009KT 13/12 A30 RMK A01 T01310117  RH  094%=      5-min Rain = 0
KWVS 231155Z 01009KT 13/12 A30 RMK A01 T01310117  RH  094%=      5-min Rain = 0
KWVS 231200Z 01009KT 13/12 A30 RMK A01 T01310116  RH  094%=      5-min Rain = 0
KWVS 231205Z 01008KT 13/12 A30 RMK A01 T01300116  RH  094%=      5-min Rain = 0
KWVS 231210Z 02008KT 13/12 A30 RMK A01 T01300116  RH  095%=      5-min Rain = 0
KWVS 231215Z 02005KT 13/12 A3001 RMK A01 T01290116  RH  095%=      5-min Rain = 0
KWVS 231220Z 02004KT 13/12 A3001 RMK A01 T01290117  RH  096%=      5-min Rain = 0
KWVS 231225Z 02002KT 13/12 A3002 RMK A01 T01290118  RH  096%=      5-min Rain = 0
KWVS 231230Z 01001KT 13/12 A3002 RMK A01 T01290118  RH  096%=      5-min Rain = 0
KWVS 231235Z 36004KT 13/12 A3001 RMK A01 T01290118  RH  096%=      5-min Rain = 0
KWVS 231240Z 36004KT 13/12 A3002 RMK A01 T01300117  RH  096%=      5-min Rain = 0
KWVS 231245Z 34004KT 13/12 A3003 RMK A01 T01300117  RH  095%=      5-min Rain = 0
KWVS 231250Z 33005KT 13/12 A3003 RMK A01 T01300118  RH  096%=      5-min Rain = 0
KWVS 231255Z 33007KT 13/12 A3004 RMK A01 T01310118  RH  095%=      5-min Rain = 0
KWVS 231300Z 34009KT 13/12 A3004 RMK A01 T01320118  RH  095%=      5-min Rain = 0
KWVS 231305Z 35009KT 13/12 A3004 RMK A01 T01330117  RH  093%=      5-min Rain = 0
KWVS 231310Z 33009KT 13/12 A3005 RMK A01 T01330116  RH  093%=      5-min Rain = 0
KWVS 231315Z 33009KT 13/12 A3005 RMK A01 T01340116  RH  092%=      5-min Rain = 0
KWVS 231320Z 35009KT 13/12 A3005 RMK A01 T01330117  RH  093%=      5-min Rain = 0
KWVS 231325Z 35011KT 13/12 A3005 RMK A01 T01330117  RH  093%=      5-min Rain = 0
KWVS 231330Z 00012KT 13/12 A3004 RMK A01 T01330117  RH  094%=      5-min Rain = 0
KWVS 231335Z 01012KT 13/12 A3003 RMK A01 T01320118  RH  094%=      5-min Rain = 0
KWVS 231340Z 35010KT 13/12 A3004 RMK A01 T01320118  RH  095%=      5-min Rain = 0
KWVS 231345Z 01010KT 13/12 A3004 RMK A01 T01320119  RH  095%=      5-min Rain = 0.01
KWVS 231350Z 01012KT 13/12 A3003 RMK A01 T01320118  RH  095%=      5-min Rain = 0
KWVS 231355Z 01011KT 13/12 A3004 RMK A01 T01320118  RH  095%=      5-min Rain = 0
KWVS 231400Z 03006KT 13/12 A3004 RMK A01 T01320119  RH  095%=      5-min Rain = 0
KWVS 231405Z 03002KT 13/12 A3006 RMK A01 T01330119  RH  095%=      5-min Rain = 0
KWVS 231410Z 08001KT 13/12 A3007 RMK A01 T01330119  RH  095%=      5-min Rain = 0
KWVS 231415Z 10002KT 13/12 A3007 RMK A01 T01330119  RH  095%=      5-min Rain = 0
KWVS 231420Z 06005KT 13/12 A3007 RMK A01 T01330118  RH  094%=      5-min Rain = 0
KWVS 231425Z 03009KT 13/12 A3006 RMK A01 T01340118  RH  094%=      5-min Rain = 0
KWVS 231430Z 00008KT 13/12 A3007 RMK A01 T01330119  RH  094%=      5-min Rain = 0.01
KWVS 231435Z 03007KT 13/12 A3007 RMK A01 T01330119  RH  095%=      5-min Rain = 0
KWVS 231440Z 05009KT 13/12 A3006 RMK A01 T01330120  RH  095%=      5-min Rain = 0
KWVS 231445Z 03009KT 13/12 A3006 RMK A01 T01330120  RH  095%=      5-min Rain = 0.01
KWVS 231450Z 03009KT 13/12 A3006 RMK A01 T01340121  RH  095%=      5-min Rain = 0
KWVS 231455Z 02012KT 13/12 A3005 RMK A01 T01340121  RH  095%=      5-min Rain = 0
KWVS 231500Z 03013KT 14/12 A3004 RMK A01 T01350122  RH  095%=      5-min Rain = 0
KWVS 231505Z 03011KT 14/12 A3003 RMK A01 T01350123  RH  096%=      5-min Rain = 0
KWVS 231510Z 03013KT 14/12 A3003 RMK A01 T01360124  RH  096%=      5-min Rain = 0
KWVS 231515Z 02013G18KT 14/13 A3002 RMK A01 T01370125  RH  096%=      5-min Rain = 0
KWVS 231520Z 02013KT 14/12 A3003 RMK A01 T01380124  RH  095%=      5-min Rain = 0
KWVS 231525Z 02012KT 14/12 A3003 RMK A01 T01390124  RH  094%=      5-min Rain = 0
KWVS 231530Z 02014KT 14/13 A3003 RMK A01 T01410125  RH  094%=      5-min Rain = 0
KWVS 231535Z 02014KT 14/13 A3003 RMK A01 T01420125  RH  093%=      5-min Rain = 0
KWVS 231540Z 02012KT 14/13 A3003 RMK A01 T01420125  RH  093%=      5-min Rain = 0
KWVS 231545Z 03012KT 14/12 A3004 RMK A01 T01420124  RH  092%=      5-min Rain = 0
KWVS 231550Z 04010KT 14/12 A3004 RMK A01 T01420124  RH  093%=      5-min Rain = 0
KWVS 231555Z 04012KT 14/12 A3004 RMK A01 T01420124  RH  092%=      5-min Rain = 0
KWVS 231600Z 04011G16KT 14/12 A3004 RMK A01 T01420124  RH  092%=      5-min Rain = 0
KWVS 231605Z 04010KT 15/13 A3004 RMK A01 T01460128  RH  093%=      5-min Rain = 0
KWVS 231610Z 05009KT 15/13 A3005 RMK A01 T01530132  RH  090%=      5-min Rain = 0
KWVS 231615Z 05009KT 15/13 A3005 RMK A01 T01530129  RH  090%=      5-min Rain = 0
KWVS 231620Z 05009KT 16/13 A3004 RMK A01 T01570133  RH  089%=      5-min Rain = 0
KWVS 231625Z 04012G17KT 16/13 A3004 RMK A01 T01570129  RH  087%=      5-min Rain = 0
KWVS 231630Z 03013KT 15/13 A3004 RMK A01 T01530126  RH  087%=      5-min Rain = 0
KWVS 231635Z 04011G16KT 16/13 A3004 RMK A01 T01560128  RH  087%=      5-min Rain = 0
KWVS 231640Z 03012KT 15/13 A3004 RMK A01 T01540126  RH  087%=      5-min Rain = 0
KWVS 231645Z 04011KT 15/13 A3004 RMK A01 T01530125  RH  087%=      5-min Rain = 0
KWVS 231650Z 03010KT 16/13 A3004 RMK A01 T01590130  RH  086%=      5-min Rain = 0
KWVS 231655Z 02012KT 16/13 A3003 RMK A01 T01600129  RH  085%=      5-min Rain = 0
KWVS 231700Z 01014KT 17/13 A3004 RMK A01 T01670131  RH  082%=      5-min Rain = 0
KWVS 231705Z 02013KT 17/13 A3004 RMK A01 T01650127  RH  081%=      5-min Rain = 0
KWVS 231710Z 01013KT 17/13 A3004 RMK A01 T01690130  RH  081%=      5-min Rain = 0
KWVS 231715Z 02010G15KT 17/13 A3005 RMK A01 T01690130  RH  081%=      5-min Rain = 0
KWVS 231720Z 02011KT 17/13 A3005 RMK A01 T01670126  RH  080%=      5-min Rain = 0
KWVS 231725Z 03011KT 16/13 A3005 RMK A01 T01640126  RH  082%=      5-min Rain = 0
KWVS 231730Z 03011KT 16/12 A3005 RMK A01 T01620124  RH  081%=      5-min Rain = 0
KWVS 231735Z 03011KT 16/12 A3005 RMK A01 T01620124  RH  081%=      5-min Rain = 0
KWVS 231740Z 05011KT 16/12 A3005 RMK A01 T01620123  RH  081%=      5-min Rain = 0
KWVS 231745Z 04009G14KT 16/12 A3005 RMK A01 T01620123  RH  081%=      5-min Rain = 0
KWVS 231750Z 04011KT 16/12 A3004 RMK A01 T01640124  RH  080%=      5-min Rain = 0
KWVS 231755Z 04011KT 17/12 A3004 RMK A01 T01660123  RH  078%=      5-min Rain = 0
KWVS 231800Z 03010KT 17/12 A3004 RMK A01 T01670123  RH  078%=      5-min Rain = 0
KWVS 231805Z 03010KT 17/12 A3004 RMK A01 T01670123  RH  078%=      5-min Rain = 0
KWVS 231810Z 03011KT 17/12 A3004 RMK A01 T01670122  RH  077%=      5-min Rain = 0
KWVS 231815Z 05008KT 17/12 A3004 RMK A01 T01680123  RH  078%=      5-min Rain = 0
KWVS 231820Z 06009KT 17/12 A3004 RMK A01 T01700122  RH  076%=      5-min Rain = 0
KWVS 231825Z 05008KT 17/12 A3004 RMK A01 T01710118  RH  074%=      5-min Rain = 0
KWVS 231830Z 04009KT 17/12 A3004 RMK A01 T01710119  RH  074%=      5-min Rain = 0
KWVS 231835Z 05008KT 17/12 A3004 RMK A01 T01720119  RH  074%=      5-min Rain = 0
KWVS 231840Z 04007KT 17/12 A3004 RMK A01 T01730121  RH  074%=      5-min Rain = 0
KWVS 231845Z 04008KT 18/12 A3004 RMK A01 T01750121  RH  073%=      5-min Rain = 0
KWVS 231850Z 04008KT 17/12 A3004 RMK A01 T01730121  RH  074%=      5-min Rain = 0
KWVS 231855Z 04008KT 17/12 A3004 RMK A01 T01730121  RH  074%=      5-min Rain = 0
KWVS 231900Z 05009KT 17/12 A3004 RMK A01 T01690119  RH  075%=      5-min Rain = 0
KWVS 231905Z 03009KT 17/12 A3003 RMK A01 T01700122  RH  076%=      5-min Rain = 0
KWVS 231910Z 05010KT 17/12 A3003 RMK A01 T01720123  RH  076%=      5-min Rain = 0
KWVS 231915Z 05009KT 17/12 A3003 RMK A01 T01700124  RH  077%=      5-min Rain = 0
KWVS 231920Z 05010KT 17/12 A3003 RMK A01 T01680122  RH  077%=      5-min Rain = 0
KWVS 231925Z 04010KT 17/12 A3002 RMK A01 T01700122  RH  076%=      5-min Rain = 0
KWVS 231930Z 05009KT 17/12 A3002 RMK A01 T01710120  RH  075%=      5-min Rain = 0
KWVS 231935Z 02010KT 17/12 A3002 RMK A01 T01730118  RH  073%=      5-min Rain = 0
KWVS 231940Z 02010KT 17/12 A3002 RMK A01 T01710124  RH  077%=      5-min Rain = 0
KWVS 231945Z 01013KT 16/12 A3003 RMK A01 T01610124  RH  082%=      5-min Rain = 0
KWVS 231950Z 00013KT 15/12 A3003 RMK A01 T01520122  RH  086%=      5-min Rain = 0
KWVS 231955Z 00014G20KT 15/12 A3003 RMK A01 T01460119  RH  087%=      5-min Rain = 0
KWVS 232000Z 00013KT 14/12 A3003 RMK A01 T01420117  RH  088%=      5-min Rain = 0
KWVS 232005Z 00015KT 14/12 A3003 RMK A01 T01400115  RH  088%=      5-min Rain = 0
KWVS 232010Z 00013KT 14/12 A3003 RMK A01 T01400116  RH  088%=      5-min Rain = 0
KWVS 232015Z 01013KT 14/12 A3003 RMK A01 T01410115  RH  088%=      5-min Rain = 0
KWVS 232020Z 00013KT 14/12 A3003 RMK A01 T01410115  RH  087%=      5-min Rain = 0
KWVS 232025Z 00013G18KT 14/12 A3003 RMK A01 T01410115  RH  088%=      5-min Rain = 0
KWVS 232030Z 00014KT 14/11 A3003 RMK A01 T01410114  RH  087%=      5-min Rain = 0
KWVS 232035Z 01010G15KT 14/11 A3003 RMK A01 T01390114  RH  088%=      5-min Rain = 0
KWVS 232040Z 01011G17KT 14/11 A3003 RMK A01 T01390113  RH  087%=      5-min Rain = 0
KWVS 232045Z 35013KT 14/11 A3003 RMK A01 T01380112  RH  087%=      5-min Rain = 0
KWVS 232050Z 35013KT 14/11 A3003 RMK A01 T01360110  RH  087%=      5-min Rain = 0
KWVS 232055Z 36012KT 14/11 A3003 RMK A01 T01360110  RH  087%=      5-min Rain = 0
KWVS 232100Z 01012G17KT 14/11 A3003 RMK A01 T01360109  RH  086%=      5-min Rain = 0
KWVS 232105Z 01011KT 14/11 A3002 RMK A01 T01360109  RH  087%=      5-min Rain = 0
KWVS 232110Z 00012KT 14/11 A3002 RMK A01 T01370110  RH  086%=      5-min Rain = 0
KWVS 232115Z 36011KT 14/11 A3002 RMK A01 T01360110  RH  087%=      5-min Rain = 0
KWVS 232120Z 01012G17KT 14/11 A3002 RMK A01 T01380111  RH  087%=      5-min Rain = 0
KWVS 232125Z 01014KT 14/11 A3001 RMK A01 T01370110  RH  087%=      5-min Rain = 0
KWVS 232130Z 01014KT 14/11 A3001 RMK A01 T01370109  RH  086%=      5-min Rain = 0
KWVS 232135Z 01015KT 14/11 A3001 RMK A01 T01370109  RH  086%=      5-min Rain = 0
KWVS 232140Z 01014KT 14/11 A3001 RMK A01 T01360109  RH  087%=      5-min Rain = 0
KWVS 232145Z 01014KT 14/11 A3001 RMK A01 T01350109  RH  088%=      5-min Rain = 0
KWVS 232150Z 00012KT 13/11 A3001 RMK A01 T01340110  RH  088%=      5-min Rain = 0
KWVS 232155Z 36014KT 13/11 A30 RMK A01 T01330109  RH  088%=      5-min Rain = 0
KWVS 232200Z 00015KT 13/11 A30 RMK A01 T01330108  RH  088%=      5-min Rain = 0
KWVS 232205Z 00015KT 13/11 A30 RMK A01 T01310108  RH  089%=      5-min Rain = 0
KWVS 232210Z 00015KT 13/11 A30 RMK A01 T01300108  RH  089%=      5-min Rain = 0
KWVS 232215Z 01015KT 13/11 A30 RMK A01 T01300107  RH  089%=      5-min Rain = 0
KWVS 232220Z 00012G17KT 13/11 A30 RMK A01 T01310108  RH  089%=      5-min Rain = 0
KWVS 232225Z 00014KT 13/11 A30 RMK A01 T01300107  RH  089%=      5-min Rain = 0
KWVS 232230Z 01014KT 13/11 A30 RMK A01 T01300107  RH  088%=      5-min Rain = 0
KWVS 232235Z 01014KT 13/11 A30 RMK A01 T01300106  RH  088%=      5-min Rain = 0
KWVS 232240Z 01012G17KT 13/11 A3001 RMK A01 T01300105  RH  088%=      5-min Rain = 0
KWVS 232245Z 00014KT 13/11 A3001 RMK A01 T01300105  RH  088%=      5-min Rain = 0
KWVS 232250Z 01014KT 13/11 A3001 RMK A01 T01290105  RH  088%=      5-min Rain = 0
KWVS 232255Z 01014KT 13/11 A30 RMK A01 T01290105  RH  088%=      5-min Rain = 0
KWVS 232300Z 01015KT 13/11 A30 RMK A01 T01290105  RH  088%=      5-min Rain = 0
KWVS 232305Z 01014KT 13/11 A30 RMK A01 T01300105  RH  088%=      5-min Rain = 0
KWVS 232310Z 01015KT 13/11 A30 RMK A01 T01300105  RH  088%=      5-min Rain = 0
KWVS 232315Z 01014G19KT 13/11 A30 RMK A01 T01300105  RH  088%=      5-min Rain = 0
KWVS 232320Z 01015KT 13/11 A30 RMK A01 T01310105  RH  087%=      5-min Rain = 0
KWVS 232325Z 00013G18KT 13/11 A30 RMK A01 T01310106  RH  088%=      5-min Rain = 0
KWVS 232330Z 00015G21KT 13/11 A30 RMK A01 T01300106  RH  088%=      5-min Rain = 0
KWVS 232335Z 00013KT 13/11 A30 RMK A01 T01290106  RH  089%=      5-min Rain = 0
KWVS 232340Z 00014KT 13/11 A30 RMK A01 T01300107  RH  089%=      5-min Rain = 0
KWVS 232345Z 36014KT 13/11 A2999 RMK A01 T01310107  RH  088%=      5-min Rain = 0
KWVS 232350Z 35014KT 13/11 A2999 RMK A01 T01330107  RH  088%=      5-min Rain = 0
KWVS 232355Z 36014KT 13/11 A2999 RMK A01 T01330107  RH  087%=      5-min Rain = 0
KWVS 240000Z 36015KT 13/11 A2999 RMK A01 T01330106  RH  087%=      5-min Rain = 0
KWVS 240005Z 35015KT 13/11 A2999 RMK A01 T01330106  RH  086%=      5-min Rain = 0
KWVS 240010Z 36016KT 13/11 A2999 RMK A01 T01340105  RH  085%=      5-min Rain = 0
KWVS 240015Z 01014KT 13/10 A2999 RMK A01 T01340104  RH  085%=      5-min Rain = 0
KWVS 240020Z 01013G18KT 13/11 A2999 RMK A01 T01330105  RH  086%=      5-min Rain = 0
KWVS 240025Z 01012KT 13/11 A2999 RMK A01 T01340105  RH  086%=      5-min Rain = 0
KWVS 240030Z 01013KT 13/11 A2999 RMK A01 T01340105  RH  085%=      5-min Rain = 0
KWVS 240035Z 01012KT 13/11 A2999 RMK A01 T01340105  RH  085%=      5-min Rain = 0
KWVS 240040Z 01011KT 13/11 A2999 RMK A01 T01340105  RH  085%=      5-min Rain = 0
KWVS 240045Z 01009KT 13/11 A30 RMK A01 T01340105  RH  086%=      5-min Rain = 0
KWVS 240050Z 02007KT 13/11 A3001 RMK A01 T01340106  RH  086%=      5-min Rain = 0
KWVS 240055Z 03008KT 13/11 A3001 RMK A01 T01340106  RH  086%=      5-min Rain = 0
KWVS 240100Z 03008KT 13/11 A3001 RMK A01 T01340106  RH  086%=      5-min Rain = 0
KWVS 240105Z 02010KT 13/11 A3001 RMK A01 T01340105  RH  086%=      5-min Rain = 0
KWVS 240110Z 02010KT 13/11 A3001 RMK A01 T01340105  RH  086%=      5-min Rain = 0
KWVS 240115Z 01011KT 13/11 A3001 RMK A01 T01330105  RH  086%=      5-min Rain = 0
KWVS 240120Z 02009KT 13/11 A3001 RMK A01 T01330105  RH  086%=      5-min Rain = 0
KWVS 240125Z 02009KT 13/11 A3001 RMK A01 T01330105  RH  086%=      5-min Rain = 0
KWVS 240130Z 01009KT 13/11 A3001 RMK A01 T01330105  RH  086%=      5-min Rain = 0
KWVS 240135Z 02010KT 13/11 A3001 RMK A01 T01330105  RH  086%=      5-min Rain = 0
KWVS 240140Z 02009KT 13/11 A3001 RMK A01 T01330106  RH  087%=      5-min Rain = 0
KWVS 240145Z 01011KT 13/11 A30 RMK A01 T01330106  RH  087%=      5-min Rain = 0
KWVS 240150Z 01011KT 13/11 A2999 RMK A01 T01320106  RH  087%=      5-min Rain = 0
KWVS 240155Z 36011KT 13/11 A2999 RMK A01 T01310106  RH  087%=      5-min Rain = 0
KWVS 240200Z 36011KT 13/11 A2999 RMK A01 T01300106  RH  088%=      5-min Rain = 0
KWVS 240205Z 36009KT 13/11 A2999 RMK A01 T01290105  RH  088%=      5-min Rain = 0
KWVS 240210Z 00008KT 13/11 A2999 RMK A01 T01280105  RH  089%=      5-min Rain = 0
KWVS 240215Z 36010KT 13/11 A2999 RMK A01 T01280105  RH  089%=      5-min Rain = 0
KWVS 240220Z 35011KT 13/11 A2999 RMK A01 T01270105  RH  089%=      5-min Rain = 0
KWVS 240225Z 35010KT 13/11 A2999 RMK A01 T01270105  RH  089%=      5-min Rain = 0
KWVS 240230Z 01007KT 13/11 A30 RMK A01 T01260105  RH  090%=      5-min Rain = 0
KWVS 240235Z 05006KT 13/10 A3001 RMK A01 T01250104  RH  090%=      5-min Rain = 0
KWVS 240240Z 06006KT 13/11 A3002 RMK A01 T01260105  RH  090%=      5-min Rain = 0
KWVS 240245Z 07006KT 13/11 A3002 RMK A01 T01260105  RH  090%=      5-min Rain = 0
KWVS 240250Z 05006KT 13/11 A3001 RMK A01 T01250106  RH  091%=      5-min Rain = 0
KWVS 240255Z 04006KT 12/10 A3001 RMK A01 T01230104  RH  092%=      5-min Rain = 0
KWVS 240300Z 03006KT 12/10 A3001 RMK A01 T01200103  RH  092%=      5-min Rain = 0
KWVS 240305Z 03006KT 12/10 A3002 RMK A01 T01200103  RH  092%=      5-min Rain = 0
KWVS 240310Z 02006KT 12/10 A3002 RMK A01 T01200103  RH  092%=      5-min Rain = 0
KWVS 240315Z 03004KT 12/10 A3002 RMK A01 T01210104  RH  092%=      5-min Rain = 0
KWVS 240320Z 03005KT 12/10 A3002 RMK A01 T01210104  RH  093%=      5-min Rain = 0
KWVS 240325Z 04005KT 12/11 A3002 RMK A01 T01210105  RH  093%=      5-min Rain = 0
KWVS 240330Z 02004KT 12/11 A3003 RMK A01 T01210105  RH  093%=      5-min Rain = 0
KWVS 240335Z 01005KT 12/11 A3002 RMK A01 T01210105  RH  093%=      5-min Rain = 0
KWVS 240340Z 01004KT 12/10 A3003 RMK A01 T01200104  RH  093%=      5-min Rain = 0
KWVS 240345Z 01004KT 12/10 A3003 RMK A01 T01190104  RH  093%=      5-min Rain = 0
KWVS 240350Z 00005KT 12/10 A3003 RMK A01 T01180103  RH  093%=      5-min Rain = 0
KWVS 240355Z 35007KT 12/10 A3003 RMK A01 T01180103  RH  094%=      5-min Rain = 0
KWVS 240400Z 36006KT 12/10 A3003 RMK A01 T01170103  RH  094%=      5-min Rain = 0
KWVS 240405Z 35007KT 12/10 A3003 RMK A01 T01170103  RH  094%=      5-min Rain = 0
KWVS 240410Z 35006KT 12/10 A3004 RMK A01 T01170103  RH  094%=      5-min Rain = 0
KWVS 240415Z 35004KT 12/10 A3005 RMK A01 T01180103  RH  094%=      5-min Rain = 0
KWVS 240420Z 33004KT 12/10 A3005 RMK A01 T01170103  RH  094%=      5-min Rain = 0
KWVS 240425Z 34004KT 12/10 A3004 RMK A01 T01160102  RH  095%=      5-min Rain = 0
KWVS 240430Z 34005KT 12/10 A3004 RMK A01 T01160103  RH  095%=      5-min Rain = 0
KWVS 240435Z 35005KT 12/10 A3003 RMK A01 T01160103  RH  095%=      5-min Rain = 0
KWVS 240440Z 35007KT 12/10 A3003 RMK A01 T01150102  RH  095%=      5-min Rain = 0
KWVS 240445Z 36007KT 12/10 A3002 RMK A01 T01150102  RH  095%=      5-min Rain = 0
KWVS 240450Z 01006KT 12/10 A3001 RMK A01 T01160102  RH  095%=      5-min Rain = 0
KWVS 240455Z 00007KT 12/10 A30 RMK A01 T01150102  RH  095%=      5-min Rain = 0

Page generated in 0.0178 seconds.